• Join FlightAware (Why Join?)
  • Login
  • US Flag 
 
12:54AM EST


 

Airport Tracker/Info


-or-


 

Live Flight TrackerFlight Track Log ✈ N92EJ ✈ 27-Jul-2014 ✈ KMDW - KISP

Flight Track Log - Related Links

Times and Time Zones

All times are in EDT time to prevent confusion due to time zone crossing. See the N92EJ flight status page for this flight to view local times or setup timezone preferences in your user account.

Time Position Orientation Groundspeed Altitude Reporting Facility
EDT Latitude Longitude Course Direction KTS MPH feet Rate Location/Type
02:55PM 41.7833 -87.7667 68° East 66 76 1,300  Level Chicago TRACON
02:56PM 41.8000 -87.8000 304° West 74 85 1,800 420 Climbing Chicago TRACON
02:57PM 41.8000 -87.8167 270° West 72 83 2,200 660 Climbing Chicago TRACON
02:58PM 41.8000 -87.8500 270° West 76 87 3,200 240 Climbing Chicago TRACON
02:59PM 41.8000 -87.8833 270° West 107 123 2,800 -240 Descending Chicago TRACON
03:00PM 41.8000 -87.9333 270° West 119 137 2,800  Level Chicago TRACON
03:01PM 41.8640 -87.4647 68° East  Level FlightAware Approximate
03:01PM 41.7833 -87.9667 236° Southwest 102 117 2,800  Level Chicago TRACON
03:02PM 41.7833 -88.0000 270° West 101 116 2,800  Level Chicago TRACON
03:03PM 41.7883 -88.0194 289° West 104 120 2,800  Level Chicago Center
03:04PM 41.7944 -88.0625 281° West 116 133 2,800  Level Chicago Center
03:05PM 41.8064 -88.1006 293° West 108 124 2,800  Level Chicago Center
03:06PM 41.8172 -88.1381 291° West 107 123 2,800  Level Chicago Center
03:07PM 41.8289 -88.1800 290° West 108 124 2,800 240 Level Chicago Center
03:08PM 41.8372 -88.2114 290° West 87 100 3,400 480 Climbing Chicago Center
03:09PM 41.8503 -88.2294 314° West 77 89 3,800 240 Climbing Chicago Center
03:10PM 41.8878 -88.2378 351° North 125 144 3,900  Climbing Chicago Center
03:11PM 41.9208 -88.2453 350° North 121 139 3,900  Level Chicago Center
03:12PM 41.9583 -88.2414 North 125 144 3,900 -60 Level Chicago Center
03:13PM 41.9947 -88.2347 North 129 148 3,800 -60 Descending Chicago Center
03:14PM 42.0336 -88.2258 10° North 130 150 3,800  Level Chicago Center
03:15PM 42.0700 -88.2200 North 130 150 3,800  Level Chicago Center
03:16PM 42.1069 -88.2142 North 133 153 3,800  Level Chicago Center
03:17PM 42.1453 -88.2072 North 132 152 3,800  Level Chicago Center
03:18PM 42.1822 -88.2014 North 133 153 3,800  Level Chicago Center
03:19PM 42.2208 -88.1947 North 132 152 3,800 120 Level Chicago Center
03:20PM 42.2561 -88.1889 North 129 148 4,100 480 Climbing Chicago Center
03:21PM 42.2858 -88.1808 11° North 101 116 4,900 660 Climbing Chicago Center
03:22PM 42.3122 -88.1761 North 96 110 5,500 420 Climbing Chicago Center
03:23PM 42.3389 -88.1689 11° North 100 115 5,800 120 Climbing Chicago Center
03:25PM 42.3764 -88.1592 11° North 128 147 5,800  Level Chicago Center
03:26PM 42.4139 -88.1558 North 132 152 5,800  Level Chicago Center
03:27PM 42.4611 -88.1478 North 139 160 5,800  Level Chicago Center
03:28PM 42.4994 -88.1414 North 139 160 5,900 360 Climbing Chicago Center
03:29PM 42.5217 -88.1086 47° Northeast 147 169 6,600 480 Climbing Chicago Center
03:30PM 42.5306 -88.0603 76° East 136 157 7,000 180 Climbing Chicago Center
03:31PM 42.5367 -87.9997 82° East 150 173 7,000  Level Chicago Center
03:32PM 42.5469 -87.9244 79° East 165 190 7,000  Level Chicago Center
03:33PM 42.5525 -87.8594 83° East 168 193 7,000  Level Chicago Center
03:34PM 42.5539 -87.7928 88° East 178 205 7,000  Level Chicago Center
03:35PM 42.5556 -87.7281 88° East 178 205 7,000  Level Chicago Center
03:36PM 42.5550 -87.6631 91° East 177 204 7,000  Level Chicago Center
03:37PM 42.5544 -87.5983 91° East 176 203 7,000 180 Level Chicago Center
03:38PM 42.5692 -87.5222 75° East 176 203 7,400 480 Climbing Chicago Center
03:39PM 42.5822 -87.4847 65° Northeast 136 157 8,100 600 Climbing Chicago Center
03:40PM 42.5942 -87.4367 71° East 123 142 8,700 420 Climbing Chicago Center
03:41PM 42.6011 -87.3886 79° East 124 143 9,000 120 Climbing Chicago Center
03:42PM 42.6094 -87.3172 81° East 161 185 9,000  Level Chicago Center
03:43PM 42.6164 -87.2519 82° East 173 199 9,000  Level Chicago Center
03:44PM 42.6281 -87.1886 76° East 173 199 9,000  Level Chicago Center
03:45PM 42.6386 -87.1264 77° East 172 198 9,000  Level Chicago Center
03:46PM 42.6494 -87.0633 77° East 172 198 9,000  Level Chicago Center
03:47PM 42.6592 -87.0003 78° East 172 198 9,000  Level Chicago Center
03:48PM 42.6719 -86.9247 77° East 172 198 9,000  Level Chicago Center
03:49PM 42.6825 -86.8608 77° East 172 198 9,000  Level Chicago Center
03:50PM 42.6878 -86.7950 84° East 173 199 9,000  Level Chicago Center
03:51PM 42.6897 -86.7300 88° East 174 200 9,000  Level Chicago Center
03:52PM 42.6919 -86.6656 87° East 173 199 9,000  Level Chicago Center
03:54PM 42.6953 -86.5878 87° East 173 199 9,000  Level Chicago Center
03:55PM 42.6989 -86.5225 86° East 173 199 9,000  Level Chicago Center
03:56PM 42.7031 -86.4589 85° East 171 197 9,000  Level Chicago Center
03:57PM 42.7300 -86.4111 52° Northeast 158 182 9,100  Climbing Chicago Center
03:58PM 42.7589 -86.3647 50° Northeast 159 183 9,100 -60 Level Chicago Center
03:59PM 42.7883 -86.3156 51° Northeast 164 189 9,000  Descending Chicago Center
04:00PM 42.8242 -86.2581 50° Northeast 165 190 9,100  Climbing Chicago Center
04:01PM 42.8550 -86.2075 50° Northeast 171 197 9,100 -60 Level Chicago Center
04:02PM 42.8811 -86.1517 57° Northeast 173 199 9,000 -60 Descending Chicago Center
04:03PM 42.8992 -86.0922 67° East 173 199 9,000  Level Chicago Center
04:04PM 42.9014 -86.0258 87° East 177 204 9,100  Climbing Chicago Center
04:05PM 42.9003 -85.9469 91° East 176 203 9,000 -60 Descending Chicago Center
04:06PM 42.9133 -85.8917 72° East 159 183 9,000 -60 Level Chicago Center
04:07PM 42.9250 -85.8300 75° East 165 190 8,900  Descending Chicago Center
04:08PM 42.9306 -85.7664 83° East 167 192 9,000  Climbing Chicago Center
04:09PM 42.9364 -85.7017 83° East 170 196 8,900 -60 Descending Chicago Center
04:10PM 42.9467 -85.6253 80° East 171 197 8,900  Level Chicago Center
04:11PM 42.9547 -85.5611 80° East 171 197 8,900  Level Chicago Center
04:12PM 42.9628 -85.4994 80° East 171 197 8,900  Level Chicago Center
04:13PM 42.9700 -85.4347 81° East 170 196 8,900  Level Chicago Center
04:14PM 42.9781 -85.3714 80° East 170 196 8,900  Level Chicago Center
04:15PM 42.9861 -85.2953 82° East 170 196 8,900  Level Chicago Center
04:16PM 42.9939 -85.2303 81° East 171 197 8,900  Level Chicago Center
04:17PM 43.0022 -85.1644 80° East 173 199 9,000  Climbing Chicago Center
04:18PM 43.0092 -85.0978 82° East 175 201 8,900  Descending Chicago Center
04:19PM 43.0169 -85.0317 81° East 176 203 9,000  Climbing Chicago Center
04:20PM 43.0247 -84.9639 81° East 177 204 9,000  Level Chicago Center
04:21PM 43.0331 -84.8808 82° East 184 212 9,000  Level Chicago Center
04:22PM 43.0381 -84.8331 82° East 184 212 9,000  Level Cleveland Center
04:23PM 43.0458 -84.7597 82° East 185 213 9,000  Level Cleveland Center
04:24PM 43.0536 -84.6886 81° East 183 211 9,000  Level Cleveland Center
04:25PM 43.0622 -84.6175 81° East 181 208 9,000 -60 Level Cleveland Center
04:26PM 43.0706 -84.5494 80° East 179 206 8,900 -60 Descending Cleveland Center
04:27PM 43.0717 -84.4803 89° East 178 205 8,900  Level Cleveland Center
04:28PM 43.0636 -84.4111 99° East 178 205 9,000  Climbing Cleveland Center
04:29PM 43.0556 -84.3475 100° East 178 205 8,900  Descending Cleveland Center
04:30PM 43.0486 -84.2800 98° East 175 201 9,000  Climbing Cleveland Center
04:31PM 43.0403 -84.2086 99° East 181 208 8,900  Descending Cleveland Center
04:33PM 43.0331 -84.1381 98° East 181 208 9,000  Climbing Cleveland Center
04:34PM 43.0253 -84.0694 99° East 177 204 8,900 -60 Descending Cleveland Center
04:35PM 43.0186 -84.0017 98° East 175 201 8,900  Level Cleveland Center
04:36PM 43.0111 -83.9328 98° East 176 203 9,000  Climbing Cleveland Center
04:37PM 43.0028 -83.8622 99° East 178 205 8,900  Descending Cleveland Center
04:38PM 42.9961 -83.7986 98° East 178 205 9,000  Climbing Cleveland Center
04:39PM 42.9881 -83.7289 99° East 178 205 8,900  Descending Cleveland Center
04:40PM 42.9825 -83.6633 97° East 169 194 9,000  Climbing Cleveland Center
04:41PM 42.9836 -83.5986 89° East 169 194 8,900 -60 Descending Cleveland Center
04:42PM 42.9867 -83.5394 86° East 145 167 8,900  Level Cleveland Center
04:42PM 42.9875 -83.5264 85° East 142 163 8,900  Level Cleveland Center
04:43PM 42.9875 -83.4856 90° East 136 157 8,900  Level Cleveland Center
04:43PM 42.9875 -83.4722 90° East 126 145 8,900  Level Cleveland Center
04:44PM 42.9858 -83.4378 94° East 129 148 8,900  Level Cleveland Center
04:44PM 42.9839 -83.4144 96° East 130 150 8,900 60 Level Cleveland Center
04:45PM 42.9817 -83.3797 95° East 140 161 9,000 60 Climbing Cleveland Center
04:45PM 42.9794 -83.3625 100° East 148 170 9,000  Level Cleveland Center
04:46PM 42.9783 -83.3242 92° East 147 169 9,000  Level Cleveland Center
04:46PM 42.9764 -83.2964 95° East 154 177 9,000  Level Cleveland Center
04:47PM 42.9756 -83.2606 92° East 154 177 9,000 -120 Level Cleveland Center
04:47PM 42.9742 -83.2447 97° East 159 183 8,900  Descending Cleveland Center
04:48PM 42.9731 -83.1992 92° East 162 186 9,000 60 Climbing Cleveland Center
04:48PM 42.9731 -83.1789 90° East 165 190 9,000 -120 Level Cleveland Center
04:49PM 42.9708 -83.1325 94° East 163 188 8,900 -240 Descending Cleveland Center
04:49PM 42.9697 -83.1128 94° East 164 189 8,800  Descending Cleveland Center
04:50PM 42.9711 -83.0786 87° East 145 167 8,900 60 Climbing Cleveland Center
04:50PM 42.9714 -83.0644 88° East 139 160 8,900 -120 Level Cleveland Center
04:51PM 42.9697 -83.0239 93° East 142 163 8,800  Descending Cleveland Center
04:51PM 42.9694 -83.0072 91° East 142 163 8,900 180 Climbing Cleveland Center
04:52PM 42.9664 -82.9642 96° East 149 171 9,000  Climbing Cleveland Center
04:52PM 42.9653 -82.9497 96° East 158 182 8,900 -120 Descending Cleveland Center
04:53PM 42.9614 -82.8983 96° East 158 182 8,900  Level Cleveland Center
04:53PM 42.9617 -82.8864 88° East 158 182 8,900  Level Cleveland Center
04:54PM 42.9611 -82.8433 91° East 151 174 8,900  Level Cleveland Center
04:54PM 42.9617 -82.8322 86° East 150 173 8,900  Level Cleveland Center
04:55PM 42.9592 -82.7800 94° East 152 175 8,900  Level Cleveland Center
04:55PM 42.9578 -82.7717 103° East 155 178 8,900 60 Level Cleveland Center
04:56PM 42.9558 -82.7228 93° East 152 175 9,000  Climbing Cleveland Center
04:57PM 42.9508 -82.6556 96° East 163 188 8,900 -60 Descending Cleveland Center
04:58PM 42.9444 -82.5967 98° East 162 186 8,900  Level Cleveland Center
04:59PM 42.9292 -82.5314 108° East 161 185 9,000  Climbing Cleveland Center
05:00PM 42.9156 -82.4767 109° East 162 186 9,000 -60 Level Cleveland Center
05:01PM 42.9053 -82.4183 104° East 161 185 8,900  Descending Cleveland Center
05:03PM 42.8833 -82.3333 109° East 160 184 9,000  Climbing Toronto Center
05:04PM 42.8667 -82.2667 109° East 160 184 9,000  Level Toronto Center
05:05PM 42.8500 -82.2333 124° Southeast 160 184 9,000  Level Toronto Center
05:06PM 42.8500 -82.1500 90° East 150 173 9,000  Level Toronto Center
05:07PM 42.8333 -82.1167 124° Southeast 150 173 9,000 -60 Level Toronto Center
05:08PM 42.8356 -82.0722 86° East 154 177 8,900 -60 Descending Cleveland Center
05:09PM 42.8233 -82.0100 105° East 154 177 8,900  Level Cleveland Center
05:10PM 42.8117 -81.9564 107° East 154 177 9,000  Climbing Cleveland Center
05:11PM 42.8000 -81.9011 106° East 150 173 9,000 -60 Level Cleveland Center
05:12PM 42.7878 -81.8436 106° East 151 174 8,900  Descending Cleveland Center
05:13PM 42.7761 -81.7844 105° East 153 176 9,000  Climbing Cleveland Center
05:14PM 42.7647 -81.7264 105° East 153 176 9,000 -60 Level Cleveland Center
05:15PM 42.7531 -81.6722 106° East 153 176 8,900  Descending Cleveland Center
05:16PM 42.7414 -81.6139 105° East 154 177 9,000  Climbing Cleveland Center
05:17PM 42.7283 -81.5558 107° East 153 176 9,000  Level Cleveland Center
05:18PM 42.7167 -81.5017 106° East 156 180 9,000  Level Cleveland Center
05:19PM 42.7058 -81.4450 105° East 156 180 9,000  Level Cleveland Center
05:20PM 42.6936 -81.3867 106° East 156 180 9,000  Level Cleveland Center
05:21PM 42.6797 -81.3292 108° East 157 181 9,000  Level Cleveland Center
05:22PM 42.6644 -81.2611 107° East 159 183 9,000  Level Cleveland Center
05:23PM 42.6528 -81.2019 105° East 160 184 9,000  Level Cleveland Center
05:24PM 42.6392 -81.1436 108° East 160 184 9,000  Level Cleveland Center
05:25PM 42.6281 -81.0858 105° East 159 183 9,000  Level Cleveland Center
05:26PM 42.6150 -81.0283 107° East 159 183 9,100  Climbing Cleveland Center
05:27PM 42.6025 -80.9700 106° East 160 184 9,100  Level Cleveland Center
05:28PM 42.5914 -80.9142 105° East 158 182 9,100  Level Cleveland Center
05:29PM 42.5797 -80.8594 106° East 153 176 9,100 -60 Level Cleveland Center
05:30PM 42.5678 -80.8047 106° East 152 175 9,000 -60 Descending Cleveland Center
05:31PM 42.5569 -80.7536 106° East 145 167 9,000  Level Cleveland Center
05:32PM 42.5442 -80.6914 106° East 144 166 9,100  Climbing Cleveland Center
05:33PM 42.5300 -80.6342 109° East 152 175 9,100  Level Cleveland Center
05:34PM 42.5172 -80.5800 108° East 152 175 9,100  Level Cleveland Center
05:35PM 42.5072 -80.5256 104° East 152 175 9,100  Level Cleveland Center
05:36PM 42.4964 -80.4708 105° East 151 174 9,100  Level Cleveland Center
05:37PM 42.4833 -80.4167 108° East 151 174 9,100  Level Cleveland Center
05:38PM 42.4714 -80.3619 106° East 151 174 9,100  Level Cleveland Center
05:39PM 42.4589 -80.3028 106° East 151 174 9,100  Level Cleveland Center
05:41PM 42.4467 -80.2461 106° East 151 174 9,100  Level Cleveland Center
05:42PM 42.4350 -80.1900 106° East 151 174 9,100  Level Cleveland Center
05:43PM 42.4231 -80.1342 106° East 150 173 9,100  Level Cleveland Center
05:44PM 42.4103 -80.0833 109° East 150 173 9,100  Level Cleveland Center
05:45PM 42.3981 -80.0261 106° East 150 173 9,100  Level Cleveland Center
05:46PM 42.3853 -79.9708 107° East 150 173 9,100  Level Cleveland Center
05:47PM 42.3731 -79.9147 106° East 151 174 9,100  Level Cleveland Center
05:48PM 42.3606 -79.8631 108° East 150 173 9,100  Level Cleveland Center
05:49PM 42.3467 -79.8056 108° East 154 177 9,100  Level Cleveland Center
05:50PM 42.3336 -79.7475 107° East 155 178 9,100  Level Cleveland Center
05:51PM 42.3222 -79.6897 105° East 154 177 9,100  Level Cleveland Center
05:52PM 42.3083 -79.6331 108° East 153 176 9,100 -300 Level Cleveland Center
05:54PM 42.2667 -79.5000 113° Southeast 170 196 8,300 -420 Descending Toronto Center
05:55PM 42.2500 -79.4333 109° East 170 196 7,900 -360 Descending Toronto Center
05:56PM 42.2500 -79.3833 90° East 170 196 7,600 -180 Descending Toronto Center
05:57PM 42.2333 -79.3167 109° East 160 184 7,600  Level Toronto Center
05:58PM 42.2167 -79.2667 114° Southeast 160 184 7,600  Level Toronto Center
05:59PM 42.2000 -79.2000 109° East 150 173 7,600  Level Toronto Center
06:00PM 42.2000 -79.1667 90° East 160 184 7,600 -60 Level Toronto Center
06:01PM 42.1853 -79.1086 109° East 155 178 7,500 -60 Descending Cleveland Center
06:02PM 42.1753 -79.0514 103° East 154 177 7,500 -60 Level Cleveland Center
06:03PM 42.1675 -78.9964 101° East 146 168 7,400 -60 Descending Cleveland Center
06:04PM 42.1589 -78.9456 103° East 146 168 7,400  Level Cleveland Center
06:05PM 42.1489 -78.8942 105° East 145 167 7,400  Level Cleveland Center
06:06PM 42.1414 -78.8367 100° East 150 173 7,400  Level Cleveland Center
06:07PM 42.1311 -78.7828 104° East 152 175 7,400  Level Cleveland Center
06:08PM 42.1186 -78.7289 107° East 151 174 7,400  Level Cleveland Center
06:09PM 42.1069 -78.6633 103° East 151 174 7,400  Level Cleveland Center
06:10PM 42.0992 -78.6103 101° East 150 173 7,400  Level Cleveland Center
06:11PM 42.0897 -78.5567 103° East 150 173 7,400  Level Cleveland Center
06:12PM 42.0778 -78.5008 106° East 151 174 7,400  Level Cleveland Center
06:13PM 42.0681 -78.4450 103° East 153 176 7,400  Level Cleveland Center
06:14PM 42.0589 -78.3886 102° East 153 176 7,400  Level Cleveland Center
06:15PM 42.0475 -78.3322 105° East 154 177 7,400  Level Cleveland Center
06:16PM 42.0353 -78.2658 104° East 154 177 7,400  Level Cleveland Center
06:17PM 42.0250 -78.2092 104° East 154 177 7,400  Level Cleveland Center
06:18PM 42.0142 -78.1492 104° East 154 177 7,400  Level Cleveland Center
06:19PM 42.0033 -78.0931 105° East 155 178 7,400  Level Cleveland Center
06:20PM 41.9928 -78.0358 104° East 155 178 7,400  Level Cleveland Center
06:21PM 41.9819 -77.9783 104° East 155 178 7,400  Level Cleveland Center
06:23PM 41.9719 -77.9217 103° East 156 180 7,400  Level Cleveland Center
06:24PM 41.9611 -77.8658 105° East 156 180 7,400  Level Cleveland Center
06:25PM 41.9506 -77.8103 104° East 156 180 7,500  Climbing Cleveland Center
06:26PM 41.9378 -77.7417 104° East 156 180 7,500  Level Cleveland Center
06:27PM 41.9269 -77.6853 104° East 156 180 7,500  Level Cleveland Center
06:28PM 41.9161 -77.6283 104° East 156 180 7,500  Level Cleveland Center
06:29PM 41.9056 -77.5719 104° East 156 180 7,500  Level Cleveland Center
06:30PM 41.8944 -77.5144 105° East 156 180 7,500  Level Cleveland Center
06:31PM 41.8842 -77.4583 104° East 157 181 7,500  Level Cleveland Center
06:32PM 41.8733 -77.4003 104° East 157 181 7,500  Level Cleveland Center
06:33PM 41.8600 -77.3317 105° East 158 182 7,500  Level Cleveland Center
06:34PM 41.8478 -77.2750 106° East 158 182 7,500  Level Cleveland Center
06:35PM 41.8372 -77.2192 104° East 158 182 7,500  Level Cleveland Center
06:36PM 41.8275 -77.1642 103° East 157 181 7,500  Level Cleveland Center
06:37PM 41.8167 -77.1092 105° East 156 180 7,500  Level Cleveland Center
06:39PM 41.7944 -76.9989 105° East 155 178 7,500  Level Boston Center
06:40PM 41.7831 -76.9422 105° East 155 178 7,500  Level Boston Center
06:41PM 41.7714 -76.8811 104° East 155 178 7,500  Level Boston Center
06:42PM 41.7611 -76.8253 104° East 155 178 7,500  Level Boston Center
06:43PM 41.7494 -76.7703 106° East 155 178 7,500  Level Boston Center
06:44PM 41.7394 -76.7156 104° East 155 178 7,500  Level Boston Center
06:45PM 41.7289 -76.6608 104° East 154 177 7,500  Level Boston Center
06:46PM 41.7172 -76.6064 106° East 154 177 7,500  Level Boston Center
06:47PM 41.7067 -76.5511 104° East 154 177 7,500  Level Boston Center
06:48PM 41.6925 -76.4842 106° East 154 177 7,500  Level Boston Center
06:49PM 41.6806 -76.4275 106° East 154 177 7,500  Level Boston Center
06:50PM 41.6700 -76.3711 104° East 155 178 7,500  Level Boston Center
06:51PM 41.6581 -76.3144 106° East 155 178 7,500  Level Boston Center
06:52PM 41.6453 -76.2583 107° East 155 178 7,500  Level Boston Center
06:53PM 41.6344 -76.2014 104° East 156 180 7,500  Level Boston Center
06:54PM 41.6222 -76.1447 106° East 156 180 7,500  Level Boston Center
06:55PM 41.6092 -76.0772 104° East 156 180 7,500  Level Boston Center
06:56PM 41.5978 -76.0203 105° East 156 180 7,500  Level Boston Center
06:57PM 41.5869 -75.9647 105° East 156 180 7,500  Level Boston Center
06:58PM 41.5744 -75.9092 107° East 156 180 7,500  Level Boston Center
06:59PM 41.5633 -75.8519 105° East 156 180 7,600  Climbing Boston Center
07:00PM 41.5517 -75.7944 105° East 160 184 7,500 -60 Descending Boston Center
07:02PM 41.5397 -75.7381 106° East 157 181 7,500  Level Boston Center
07:03PM 41.5250 -75.6697 106° East 159 183 7,500  Level Boston Center
07:04PM 41.5144 -75.6133 104° East 159 183 7,500  Level Boston Center
07:05PM 41.5019 -75.5550 106° East 159 183 7,600  Climbing Boston Center
07:06PM 41.4892 -75.4967 106° East 160 184 7,500 -60 Descending Boston Center
07:07PM 41.4769 -75.4397 106° East 160 184 7,500  Level Boston Center
07:08PM 41.4639 -75.3803 106° East 162 186 7,600  Climbing Boston Center
07:09PM 41.4511 -75.3219 106° East 162 186 7,500 -60 Descending Boston Center
07:10PM 41.4369 -75.2531 105° East 162 186 7,500  Level Boston Center
07:11PM 41.4267 -75.1939 103° East 162 186 7,500  Level Boston Center
07:12PM 41.4131 -75.1367 108° East 162 186 7,600  Climbing Boston Center
07:13PM 41.3972 -75.0731 108° East 163 188 7,500  Descending Boston Center
07:14PM 41.3858 -75.0153 105° East 163 188 7,600  Climbing Boston Center
07:15PM 41.3728 -74.9503 105° East 166 191 7,500 -60 Descending Boston Center
07:16PM 41.3628 -74.8911 103° East 166 191 7,500  Level Boston Center
07:17PM 41.3492 -74.8250 105° East 168 193 7,500  Level Boston Center
07:18PM 41.3364 -74.7650 106° East 168 193 7,500  Level Boston Center
07:19PM 41.3236 -74.7053 106° East 168 193 7,500  Level Boston Center
07:21PM 41.2978 -74.5808 105° East 168 193 7,500  Level Boston Center
07:22PM 41.2869 -74.5172 103° East 168 193 7,500  Level Boston Center
07:23PM 41.2747 -74.4583 105° East 167 192 7,500  Level Boston Center
07:24PM 41.2617 -74.4000 107° East 167 192 7,500  Level Boston Center
07:25PM 41.2489 -74.3364 105° East 167 192 7,500  Level Boston Center
07:26PM 41.2367 -74.2761 105° East 167 192 7,500  Level Boston Center
07:27PM 41.2250 -74.2125 104° East 167 192 7,500  Level Boston Center
07:28PM 41.2119 -74.1531 106° East 167 192 7,500  Level Boston Center
07:29PM 41.1992 -74.0939 106° East 167 192 7,500  Level Boston Center
07:30PM 41.1853 -74.0308 106° East 167 192 7,500  Level Boston Center
07:31PM 41.1714 -73.9706 107° East 168 193 7,500 -120 Level Boston Center
07:32PM 41.1564 -73.9053 107° East 172 198 7,300 -300 Descending Boston Center
07:33PM 41.1500 -73.8333 97° East 177 204 7,000 -300 Descending New York TRACON
07:34PM 41.1333 -73.7833 114° Southeast 173 199 6,800 -300 Descending New York TRACON
07:35PM 41.1167 -73.7167 108° East 180 207 6,500 -300 Descending New York TRACON
07:36PM 41.1000 -73.6667 114° Southeast 178 205 6,200 -300 Descending New York TRACON
07:37PM 41.1000 -73.6000 90° East 168 193 6,000 -300 Descending New York TRACON
07:38PM 41.0833 -73.5333 108° East 171 197 5,700 -480 Descending New York TRACON
07:39PM 41.0667 -73.4833 114° Southeast 173 199 5,100 -540 Descending New York TRACON
07:40PM 41.0333 -73.4333 131° Southeast 169 194 4,700 -420 Descending New York TRACON
07:41PM 41.0000 -73.3833 131° Southeast 164 189 4,300 -420 Descending New York TRACON
07:42PM 40.9667 -73.3500 143° Southeast 163 188 3,900 -360 Descending New York TRACON
07:43PM 40.9500 -73.3000 114° Southeast 165 190 3,600 -300 Descending New York TRACON
07:44PM 40.9167 -73.2333 123° Southeast 165 190 3,300 -360 Descending New York TRACON
07:45PM 40.9000 -73.1833 114° Southeast 165 190 2,900 -420 Descending New York TRACON
07:46PM 40.8833 -73.1500 123° Southeast 162 186 2,600 -360 Descending New York TRACON
07:47PM 40.8667 -73.1000 114° Southeast 155 178 2,300 -480 Descending New York TRACON
07:48PM 40.8333 -73.0667 143° Southeast 119 137 1,700 -900 Descending New York TRACON
07:49PM 40.8167 -73.0833 217° Southwest 75 86 600 -1,140 Descending New York TRACON
07:51PM 40.7952 -73.1002 134° Southeast  Level Estimated
07:58PM 40.7952 -73.1002 North  Level Estimated